Time;durP1;ratioP1;P1;durP2;ratioP2;P2;SDS_P1;SDS_P2;PMS_P1;PMS_P2;Temp;Humidity;BMP_temperature;BMP_pressure;BME280_temperature;BME280_humidity;BME280_pressure;Samples;Min_cycle;Max_cycle;Signal;HPM_P1;HPM_P2
2022/06/08 00:00:23;;;;;;;18.20;9.75;;;19.30;89.60;;;;;;5062802;28;20027;-76
2022/06/08 00:03:12;;;;;;;13.43;9.68;;;19.30;89.70;;;;;;5045823;28;20078;-76
2022/06/08 00:05:40;;;;;;;13.02;9.38;;;19.30;89.70;;;;;;5054541;28;20039;-76
2022/06/08 00:08:08;;;;;;;15.02;9.73;;;19.30;89.80;;;;;;5073439;28;20035;-76
2022/06/08 00:10:39;;;;;;;10.63;9.52;;;19.30;89.80;;;;;;5073318;28;20024;-76
2022/06/08 00:13:06;;;;;;;10.95;9.85;;;19.30;89.70;;;;;;5055725;28;20112;-76
2022/06/08 00:15:38;;;;;;;10.77;9.73;;;19.30;89.80;;;;;;5073273;28;20016;-76
2022/06/08 00:18:06;;;;;;;12.52;9.75;;;19.30;89.60;;;;;;5060019;28;20021;-76
2022/06/08 00:20:38;;;;;;;12.43;9.50;;;19.30;89.60;;;;;;5053544;28;20032;-76
2022/06/08 00:23:14;;;;;;;10.57;9.57;;;19.30;89.50;;;;;;5035576;28;20356;-76
2022/06/08 00:25:48;;;;;;;11.43;10.10;;;19.30;89.40;;;;;;5035550;28;20021;-76
2022/06/08 00:28:19;;;;;;;10.40;9.15;;;19.30;89.30;;;;;;5038630;28;20051;-76
2022/06/08 00:30:51;;;;;;;15.57;9.52;;;19.30;89.40;;;;;;5055502;28;20515;-76
2022/06/08 00:33:23;;;;;;;10.32;9.32;;;19.30;89.30;;;;;;5086879;28;20356;-76
2022/06/08 00:35:55;;;;;;;11.15;8.85;;;19.40;89.30;;;;;;5074104;28;20073;-76
2022/06/08 00:38:26;;;;;;;9.70;8.77;;;19.40;89.30;;;;;;5093479;28;20024;-76
2022/06/08 00:41:12;;;;;;;10.10;8.45;;;19.40;89.30;;;;;;5034983;28;20021;-76
2022/06/08 00:43:45;;;;;;;8.65;7.80;;;19.40;89.10;;;;;;5086691;28;20048;-76
2022/06/08 00:46:22;;;;;;;10.75;9.30;;;19.40;89.10;;;;;;5093190;28;20028;-76
2022/06/08 00:48:59;;;;;;;9.70;8.70;;;19.40;88.80;;;;;;5074100;28;20032;-77
2022/06/08 00:51:28;;;;;;;9.38;8.48;;;19.40;88.60;;;;;;5059420;28;20031;-76
2022/06/08 00:54:03;;;;;;;12.43;8.13;;;19.50;88.80;;;;;;5059000;28;20036;-76
2022/06/08 00:56:38;;;;;;;8.70;7.05;;;19.50;88.70;;;;;;5059288;28;20456;-76
2022/06/08 00:59:08;;;;;;;12.98;8.32;;;19.50;88.70;;;;;;5097088;28;20114;-77
2022/06/08 01:01:44;;;;;;;10.00;8.02;;;19.50;88.90;;;;;;5097152;28;20426;-76
2022/06/08 01:04:16;;;;;;;15.25;10.05;;;19.50;88.90;;;;;;5078285;28;20119;-76
2022/06/08 01:06:58;;;;;;;10.35;8.20;;;19.60;88.70;;;;;;5058799;28;20052;-76
2022/06/08 01:09:32;;;;;;;9.13;8.23;;;19.60;88.50;;;;;;5076779;28;20404;-76
2022/06/08 01:12:02;;;;;;;;;;;19.70;88.40;;;;;;5076943;28;20047;-76
2022/06/08 01:14:35;;;;;;;8.20;7.40;;;19.70;88.10;;;;;;5075206;28;19991;-76
2022/06/08 01:17:13;;;;;;;7.93;7.15;;;19.70;87.90;;;;;;5096791;28;20024;-76
2022/06/08 01:19:47;;;;;;;9.68;8.18;;;19.70;87.70;;;;;;5056431;28;20025;-76
2022/06/08 01:22:20;;;;;;;9.45;8.40;;;19.70;87.60;;;;;;5069177;28;20032;-77
2022/06/08 01:24:53;;;;;;;8.88;8.00;;;19.80;87.50;;;;;;5096811;28;20020;-76
2022/06/08 01:27:53;;;;;;;10.38;9.00;;;19.80;87.30;;;;;;5092536;28;20034;-76
2022/06/08 01:30:52;;;;;;;10.15;9.15;;;19.80;86.80;;;;;;5095913;28;20028;-76
2022/06/08 01:34:09;;;;;;;11.45;10.32;;;19.80;86.50;;;;;;5078519;28;20039;-76
2022/06/08 01:37:08;;;;;;;9.57;8.63;;;19.70;85.90;;;;;;5057133;28;20372;-76
2022/06/08 01:39:45;;;;;;;12.65;9.45;;;19.70;85.70;;;;;;5096581;28;20027;-77
2022/06/08 01:42:53;;;;;;;10.88;9.52;;;19.70;85.90;;;;;;5078326;28;20028;-76
2022/06/08 01:45:40;;;;;;;10.52;7.97;;;19.70;85.30;;;;;;5040870;28;20090;-76
2022/06/08 01:48:24;;;;;;;9.70;8.70;;;19.70;85.40;;;;;;5077836;28;20039;-76
2022/06/08 01:51:03;;;;;;;10.68;8.35;;;19.70;85.70;;;;;;5060533;28;20096;-76
2022/06/08 01:53:41;;;;;;;10.13;9.18;;;19.60;85.50;;;;;;5086323;28;20039;-77
2022/06/08 01:56:19;;;;;;;11.35;10.18;;;19.70;85.60;;;;;;5078099;28;20027;-76
2022/06/08 01:59:21;;;;;;;11.82;9.57;;;19.70;86.40;;;;;;5096102;28;20064;-76
2022/06/08 02:02:08;;;;;;;10.57;9.55;;;19.60;85.00;;;;;;5077346;28;20027;-76
2022/06/08 02:04:46;;;;;;;9.20;8.30;;;19.60;84.80;;;;;;5069985;28;20032;-76
2022/06/08 02:07:17;;;;;;;27.13;10.30;;;19.60;85.00;;;;;;5095475;28;20098;-76
2022/06/08 02:10:10;;;;;;;9.30;8.40;;;19.60;85.10;;;;;;5055512;28;20060;-76
2022/06/08 02:12:47;;;;;;;13.10;11.50;;;19.60;85.20;;;;;;5045128;28;20409;-76
2022/06/08 02:15:36;;;;;;;14.32;10.57;;;19.60;85.00;;;;;;5075086;28;20375;-76
2022/06/08 02:18:14;;;;;;;14.57;10.50;;;19.60;84.70;;;;;;5071303;28;20403;-76
2022/06/08 02:20:55;;;;;;;16.17;11.70;;;19.60;84.70;;;;;;5075402;28;20099;-76
2022/06/08 02:23:29;;;;;;;14.68;10.75;;;19.60;84.50;;;;;;5057499;28;20029;-76
2022/06/08 02:26:30;;;;;;;13.63;11.77;;;19.60;84.40;;;;;;5075751;28;20107;-76
2022/06/08 02:29:10;;;;;;;15.77;12.23;;;19.60;84.30;;;;;;5094777;28;20035;-77
2022/06/08 02:35:06;;;;;;;13.13;11.73;;;19.60;84.50;;;;;;5087482;28;20047;-77
2022/06/08 02:37:34;;;;;;;15.18;12.27;;;19.70;84.80;;;;;;5094163;28;20024;-77
2022/06/08 02:40:27;;;;;;;14.82;13.02;;;19.70;85.10;;;;;;5077175;28;20043;-77
2022/06/08 02:43:00;;;;;;;13.25;11.90;;;19.70;85.00;;;;;;5077121;28;20417;-77
2022/06/08 02:45:42;;;;;;;13.47;11.87;;;19.70;85.10;;;;;;5075670;28;20444;-76
2022/06/08 02:48:13;;;;;;;13.52;11.85;;;19.80;85.20;;;;;;5077030;28;20270;-77
2022/06/08 02:50:53;;;;;;;13.82;12.35;;;19.80;85.20;;;;;;5057284;28;20076;-77
2022/06/08 02:53:21;;;;;;;15.45;13.23;;;19.80;84.80;;;;;;5045268;28;20039;-77
2022/06/08 02:56:26;;;;;;;14.15;12.50;;;19.80;84.70;;;;;;5068639;28;20365;-76
2022/06/08 02:59:09;;;;;;;;;;;19.90;84.50;;;;;;4981140;28;20131;-77
2022/06/08 03:01:42;;;;;;;19.48;15.07;;;19.90;84.70;;;;;;5076186;28;19900;-77
2022/06/08 03:04:25;;;;;;;17.85;14.95;;;19.90;83.60;;;;;;5074932;28;20107;-78
2022/06/08 03:07:00;;;;;;;16.25;13.70;;;19.90;83.30;;;;;;5054682;28;20033;-78
2022/06/08 03:09:26;;;;;;;19.60;14.07;;;19.80;83.20;;;;;;5054825;28;20028;-78
2022/06/08 03:12:01;;;;;;;15.07;13.48;;;19.80;83.20;;;;;;5035939;28;20020;-78
2022/06/08 03:14:28;;;;;;;18.30;15.57;;;19.80;83.40;;;;;;5064323;28;20020;-78
2022/06/08 03:17:04;;;;;;;19.13;14.88;;;19.80;83.10;;;;;;5061768;28;20053;-78
2022/06/08 03:19:39;;;;;;;17.42;14.38;;;19.80;83.20;;;;;;5053977;28;20087;-78
2022/06/08 03:22:08;;;;;;;15.98;14.35;;;19.80;83.50;;;;;;5053110;28;20503;-77
2022/06/08 03:24:39;;;;;;;17.23;13.82;;;19.80;83.70;;;;;;5065329;28;20012;-77
2022/06/08 03:27:08;;;;;;;16.70;13.50;;;19.80;83.80;;;;;;5094236;28;20063;-78
2022/06/08 03:29:37;;;;;;;20.02;15.30;;;19.80;83.90;;;;;;5076523;28;20077;-78
2022/06/08 03:32:08;;;;;;;17.45;14.15;;;19.80;83.90;;;;;;5075817;28;20019;-78
2022/06/08 03:34:36;;;;;;;26.75;16.60;;;19.90;84.10;;;;;;5064163;28;20024;-78
2022/06/08 03:37:13;;;;;;;19.02;16.08;;;19.90;83.70;;;;;;5037583;28;20025;-77
2022/06/08 03:39:43;;;;;;;20.42;15.98;;;19.90;83.20;;;;;;5056430;28;20060;-77
2022/06/08 03:42:14;;;;;;;17.70;15.65;;;19.90;83.20;;;;;;5056068;28;20123;-78
2022/06/08 03:44:43;;;;;;;25.23;18.33;;;19.90;83.30;;;;;;5080763;28;20028;-78
2022/06/08 03:47:20;;;;;;;24.38;18.77;;;19.90;83.00;;;;;;5068472;28;20021;-78
2022/06/08 03:49:51;;;;;;;26.67;18.20;;;19.90;82.40;;;;;;5073233;28;20369;-78
2022/06/08 03:52:24;;;;;;;21.88;17.25;;;19.90;82.50;;;;;;5081664;28;20020;-78
2022/06/08 03:54:57;;;;;;;22.95;18.90;;;19.90;82.70;;;;;;5071700;28;20036;-78
2022/06/08 03:57:29;;;;;;;22.27;18.48;;;19.90;82.30;;;;;;5093904;28;20039;-78
2022/06/08 04:00:00;;;;;;;24.58;20.08;;;19.90;82.20;;;;;;5075383;28;20040;-78
2022/06/08 04:02:34;;;;;;;21.17;17.60;;;19.90;82.30;;;;;;5055600;28;20520;-78
2022/06/08 04:05:03;;;;;;;24.63;20.00;;;19.90;82.30;;;;;;5059427;28;20020;-78
2022/06/08 04:07:32;;;;;;;26.27;19.33;;;19.90;81.70;;;;;;5093754;28;20499;-78
2022/06/08 04:10:03;;;;;;;23.70;19.20;;;19.90;82.10;;;;;;5075552;28;20089;-78
2022/06/08 04:12:32;;;;;;;24.33;18.48;;;19.90;82.00;;;;;;5093144;28;20455;-78
2022/06/08 04:15:03;;;;;;;26.45;19.55;;;19.90;82.40;;;;;;5073715;28;20034;-78
2022/06/08 04:17:34;;;;;;;22.35;18.95;;;19.90;82.00;;;;;;5075288;28;20023;-78
2022/06/08 04:20:03;;;;;;;23.75;19.23;;;20.00;82.60;;;;;;5075478;28;20028;-78
2022/06/08 04:22:32;;;;;;;24.08;17.63;;;20.00;83.00;;;;;;5075502;28;20028;-78
2022/06/08 04:25:01;;;;;;;21.13;18.63;;;20.00;83.30;;;;;;5091766;28;20064;-78
2022/06/08 04:27:34;;;;;;;23.08;18.92;;;20.10;83.20;;;;;;5062468;28;20021;-78
2022/06/08 04:30:06;;;;;;;26.88;19.80;;;20.10;83.50;;;;;;5040835;28;20066;-78
2022/06/08 04:32:35;;;;;;;24.67;19.48;;;20.10;83.20;;;;;;5052914;28;20040;-78
2022/06/08 04:35:05;;;;;;;23.90;19.75;;;20.20;83.00;;;;;;5041929;28;20023;-78
2022/06/08 04:37:37;;;;;;;22.75;18.38;;;20.30;82.90;;;;;;5078613;28;20025;-78
2022/06/08 04:40:08;;;;;;;23.50;19.75;;;20.30;83.20;;;;;;5072789;28;20062;-78
2022/06/08 04:42:37;;;;;;;24.58;19.70;;;20.30;83.20;;;;;;5065748;28;20126;-78
2022/06/08 04:45:05;;;;;;;27.02;19.48;;;20.40;84.10;;;;;;5091104;28;20448;-78
2022/06/08 04:47:36;;;;;;;23.60;20.23;;;20.40;83.00;;;;;;5075260;28;20367;-78
2022/06/08 04:50:07;;;;;;;21.63;17.90;;;20.50;83.40;;;;;;5082034;28;20025;-78
2022/06/08 04:52:36;;;;;;;22.10;17.90;;;20.60;83.50;;;;;;5054894;28;20031;-78
2022/06/08 04:55:07;;;;;;;19.52;16.75;;;20.60;82.80;;;;;;5075130;28;20043;-78
2022/06/08 04:57:37;;;;;;;23.00;17.30;;;20.60;82.60;;;;;;5093077;28;20028;-78
2022/06/08 05:00:09;;;;;;;20.30;16.27;;;20.70;82.90;;;;;;5061932;28;20074;-78
2022/06/08 05:02:46;;;;;;;21.10;17.08;;;20.70;82.60;;;;;;5054771;28;20052;-78
2022/06/08 05:05:16;;;;;;;20.88;18.00;;;20.70;81.30;;;;;;5090900;28;20089;-78
2022/06/08 05:07:46;;;;;;;18.65;16.45;;;20.70;80.90;;;;;;5074718;28;20024;-78
2022/06/08 05:10:15;;;;;;;21.80;16.35;;;20.80;81.90;;;;;;5075104;28;20031;-78
2022/06/08 05:12:46;;;;;;;20.55;16.55;;;20.80;82.10;;;;;;5092594;28;20012;-78
2022/06/08 05:15:21;;;;;;;16.83;14.75;;;20.80;81.60;;;;;;5091106;28;20027;-75
2022/06/08 05:17:55;;;;;;;16.15;14.00;;;20.90;81.20;;;;;;5059434;28;20138;-78
2022/06/08 05:20:26;;;;;;;;;;;20.90;81.10;;;;;;5051618;28;20028;-79
2022/06/08 05:22:59;;;;;;;18.08;14.52;;;20.90;81.70;;;;;;5051875;28;19967;-79
2022/06/08 05:25:35;;;;;;;15.63;13.80;;;21.00;81.00;;;;;;5059293;28;20020;-79
2022/06/08 05:28:03;;;;;;;19.35;15.18;;;21.00;82.10;;;;;;5055400;28;20614;-79
2022/06/08 05:30:35;;;;;;;16.52;14.77;;;21.10;82.50;;;;;;5053991;28;20032;-78
2022/06/08 05:33:06;;;;;;;17.33;14.52;;;21.10;82.30;;;;;;5087270;28;20034;-79
2022/06/08 05:35:33;;;;;;;15.98;14.38;;;21.20;82.50;;;;;;5090667;28;20055;-79
2022/06/08 05:38:02;;;;;;;14.57;13.07;;;21.30;82.20;;;;;;5096577;28;20067;-79
2022/06/08 05:40:33;;;;;;;14.52;12.88;;;21.40;81.90;;;;;;5096490;28;20016;-79
2022/06/08 05:43:02;;;;;;;12.38;11.10;;;21.40;82.20;;;;;;5095532;28;20024;-79
2022/06/08 05:45:32;;;;;;;13.65;11.05;;;21.50;82.00;;;;;;5075628;28;20028;-79
2022/06/08 05:48:09;;;;;;;11.55;10.35;;;21.60;81.60;;;;;;5077990;28;20062;-79
2022/06/08 05:50:41;;;;;;;13.85;10.02;;;21.70;81.70;;;;;;5095710;28;20031;-80
2022/06/08 05:53:14;;;;;;;11.00;9.90;;;21.80;80.20;;;;;;5076945;28;20500;-79
2022/06/08 05:55:43;;;;;;;9.77;8.88;;;21.90;80.50;;;;;;5075504;28;20127;-80
2022/06/08 05:58:12;;;;;;;9.70;8.68;;;22.00;79.90;;;;;;5087069;28;20370;-77
2022/06/08 06:00:47;;;;;;;15.60;11.10;;;22.10;81.10;;;;;;5076193;28;20063;-79
2022/06/08 06:03:19;;;;;;;8.65;7.82;;;22.10;79.20;;;;;;5058116;28;20506;-80
2022/06/08 06:05:48;;;;;;;10.43;8.18;;;22.20;79.50;;;;;;5076357;28;20111;-80
2022/06/08 06:08:19;;;;;;;6.97;6.28;;;22.20;75.90;;;;;;5095326;28;20111;-80
2022/06/08 06:10:47;;;;;;;14.80;6.55;;;22.20;76.50;;;;;;5077790;28;20052;-79
2022/06/08 06:13:15;;;;;;;8.30;6.75;;;22.20;75.80;;;;;;5096138;28;20461;-78
2022/06/08 06:15:47;;;;;;;8.15;6.70;;;22.20;76.00;;;;;;5076059;28;20020;-78
2022/06/08 06:18:16;;;;;;;7.30;6.13;;;22.30;77.30;;;;;;5077358;28;20118;-79
2022/06/08 06:20:44;;;;;;;6.03;5.43;;;22.30;77.20;;;;;;5064991;28;20070;-80
2022/06/08 06:23:13;;;;;;;5.95;5.32;;;22.40;78.40;;;;;;5089461;28;20024;-79
2022/06/08 06:25:46;;;;;;;6.15;5.53;;;22.50;78.70;;;;;;5075814;28;20020;-81
2022/06/08 06:28:20;;;;;;;;;;;22.50;78.60;;;;;;5095826;28;20523;-80
2022/06/08 06:30:52;;;;;;;6.15;5.50;;;22.60;79.10;;;;;;5095197;28;20354;-80
2022/06/08 06:33:20;;;;;;;5.80;5.20;;;22.60;76.20;;;;;;5077472;28;20016;-81
2022/06/08 06:35:49;;;;;;;8.70;5.72;;;22.60;74.80;;;;;;5075777;28;20020;-80
2022/06/08 06:38:17;;;;;;;6.00;5.50;;;22.50;73.30;;;;;;5095740;28;20032;-81
2022/06/08 06:40:46;;;;;;;6.57;5.70;;;22.50;73.80;;;;;;5095137;28;20508;-82
2022/06/08 06:43:14;;;;;;;6.13;5.53;;;22.40;72.70;;;;;;5077174;28;20016;-82
2022/06/08 06:45:45;;;;;;;7.38;6.03;;;22.30;73.40;;;;;;5075130;28;20028;-82
2022/06/08 06:48:19;;;;;;;7.20;6.57;;;22.30;73.20;;;;;;5094721;28;20504;-82
2022/06/08 06:50:47;;;;;;;8.82;7.45;;;22.20;73.20;;;;;;5096106;28;20012;-82
2022/06/08 06:53:15;;;;;;;8.10;6.18;;;22.20;74.70;;;;;;5095098;28;20035;-82
2022/06/08 06:55:43;;;;;;;8.25;7.45;;;22.30;76.70;;;;;;5092832;28;20070;-83
2022/06/08 06:58:13;;;;;;;8.68;7.22;;;22.40;76.20;;;;;;5072888;28;20047;-81
2022/06/08 07:00:45;;;;;;;8.38;7.53;;;22.40;76.30;;;;;;5095229;28;20078;-83
2022/06/08 07:03:16;;;;;;;8.77;7.88;;;22.50;76.90;;;;;;5094526;28;20099;-82
2022/06/08 07:05:44;;;;;;;9.32;8.40;;;22.60;75.40;;;;;;5075638;28;20085;-81
2022/06/08 07:08:14;;;;;;;7.53;6.82;;;22.70;75.90;;;;;;5094402;28;20451;-83
2022/06/08 07:10:43;;;;;;;7.45;6.75;;;22.80;77.10;;;;;;5094576;28;20371;-83
2022/06/08 07:13:14;;;;;;;7.93;6.20;;;23.00;76.70;;;;;;5057800;28;20021;-83
2022/06/08 07:15:43;;;;;;;7.38;5.82;;;23.10;74.80;;;;;;5053898;28;20512;-83
2022/06/08 07:18:15;;;;;;;7.82;7.05;;;23.20;74.40;;;;;;5076280;28;20060;-80
2022/06/08 07:20:43;;;;;;;6.03;5.07;;;23.30;71.70;;;;;;5094818;28;20096;-82
2022/06/08 07:23:14;;;;;;;9.18;5.80;;;23.40;73.30;;;;;;5094633;28;20020;-86
2022/06/08 07:25:43;;;;;;;8.25;5.90;;;23.30;70.40;;;;;;5092652;28;20531;-81
2022/06/08 07:28:15;;;;;;;9.38;6.85;;;23.40;71.80;;;;;;5094278;28;20028;-80
2022/06/08 07:30:48;;;;;;;7.68;6.40;;;23.40;71.00;;;;;;5094337;28;20024;-82
2022/06/08 07:33:20;;;;;;;9.20;6.03;;;23.30;69.40;;;;;;5076215;28;20110;-82
2022/06/08 07:35:49;;;;;;;6.78;5.85;;;23.20;69.40;;;;;;5074716;28;20035;-82
2022/06/08 07:38:17;;;;;;;6.15;5.55;;;23.20;71.20;;;;;;5076080;28;20114;-82
2022/06/08 07:40:44;;;;;;;6.55;5.63;;;23.20;70.70;;;;;;5094395;28;20065;-82
2022/06/08 07:43:14;;;;;;;7.93;6.40;;;23.20;71.40;;;;;;5075988;28;20028;-82
2022/06/08 07:45:45;;;;;;;7.80;5.47;;;23.20;70.30;;;;;;5074600;28;20055;-82
2022/06/08 07:51:02;;;;;;;8.50;6.18;;;23.10;68.60;;;;;;5093940;28;20037;-82
2022/06/08 07:53:28;;;;;;;6.60;5.80;;;23.00;69.30;;;;;;5075133;28;20081;-82
2022/06/08 07:55:56;;;;;;;6.70;6.00;;;22.90;67.80;;;;;;5069606;28;20111;-80
2022/06/08 07:58:29;;;;;;;10.55;6.15;;;22.90;67.80;;;;;;5055431;28;20112;-82
2022/06/08 08:00:57;;;;;;;9.35;6.22;;;22.90;69.80;;;;;;5055217;28;20017;-81
2022/06/08 08:03:26;;;;;;;7.18;6.45;;;22.90;69.70;;;;;;5070861;28;20086;-81
2022/06/08 08:06:00;;;;;;;5.95;5.45;;;22.80;68.40;;;;;;5054607;28;20024;-81
2022/06/08 08:08:36;;;;;;;;;;;22.80;68.80;;;;;;5074362;28;20200;-82
2022/06/08 08:11:05;;;;;;;6.55;5.80;;;22.80;70.80;;;;;;5073856;28;19900;-82
2022/06/08 08:13:34;;;;;;;7.50;6.15;;;22.80;68.70;;;;;;5072209;28;20024;-81
2022/06/08 08:16:06;;;;;;;9.05;5.75;;;22.80;69.00;;;;;;5070389;28;20364;-81
2022/06/08 08:18:35;;;;;;;5.68;5.03;;;22.80;69.10;;;;;;5048795;28;20064;-80
2022/06/08 08:21:03;;;;;;;7.53;5.43;;;22.80;69.70;;;;;;5052674;28;20467;-81
2022/06/08 08:23:36;;;;;;;6.72;5.43;;;22.90;69.70;;;;;;5036958;28;20025;-80
2022/06/08 08:26:08;;;;;;;6.40;5.72;;;22.90;68.50;;;;;;5033402;28;20045;-82
2022/06/08 08:28:36;;;;;;;5.82;5.32;;;22.90;67.30;;;;;;5048020;28;20070;-81
2022/06/08 08:31:04;;;;;;;8.30;5.78;;;23.00;69.20;;;;;;5055210;28;20090;-81
2022/06/08 08:33:36;;;;;;;7.25;5.32;;;23.10;68.90;;;;;;5055626;28;20023;-81
2022/06/08 08:36:11;;;;;;;7.07;5.38;;;23.20;68.90;;;;;;5055443;28;20024;-82
2022/06/08 08:38:40;;;;;;;6.57;4.43;;;23.30;68.50;;;;;;5072077;28;20032;-83
2022/06/08 08:44:02;;;;;;;5.80;5.05;;;23.60;69.00;;;;;;5073116;28;20536;-81
2022/06/08 08:46:43;;;;;;;4.65;4.25;;;23.80;69.00;;;;;;5048598;28;20040;-82
2022/06/08 08:49:26;;;;;;;4.95;4.18;;;24.00;71.00;;;;;;5039286;28;20387;-79
2022/06/08 08:52:19;;;;;;;5.93;4.00;;;24.20;69.90;;;;;;5034241;28;20032;-80
2022/06/08 08:54:57;;;;;;;5.18;4.70;;;24.50;70.80;;;;;;5052358;28;20093;-83
2022/06/08 08:57:41;;;;;;;5.53;3.97;;;24.80;67.20;;;;;;5022388;28;20440;-82
2022/06/08 09:00:28;;;;;;;5.78;3.90;;;24.90;64.10;;;;;;5033896;28;20088;-79
2022/06/08 09:05:49;;;;;;;4.97;3.75;;;25.20;62.60;;;;;;5047848;28;20033;-80
2022/06/08 09:08:19;;;;;;;6.05;3.22;;;25.30;64.70;;;;;;5021820;28;20033;-79
2022/06/08 09:10:46;;;;;;;3.38;2.90;;;25.50;64.70;;;;;;5034419;28;20474;-80
2022/06/08 09:13:20;;;;;;;3.58;3.10;;;25.60;64.20;;;;;;5074903;28;20036;-80
2022/06/08 09:15:51;;;;;;;4.32;3.17;;;25.70;61.80;;;;;;5046119;28;20031;-79
2022/06/08 09:18:33;;;;;;;4.78;3.35;;;25.90;65.90;;;;;;5047029;28;20037;-79
2022/06/08 09:21:19;;;;;;;5.47;3.38;;;26.10;66.10;;;;;;5056567;28;20376;-80
2022/06/08 09:23:50;;;;;;;4.80;3.97;;;26.20;62.30;;;;;;5043839;28;20087;-79
2022/06/08 09:26:30;;;;;;;3.53;3.17;;;26.20;61.10;;;;;;5036858;28;20389;-80
2022/06/08 09:29:21;;;;;;;5.68;3.33;;;26.30;63.10;;;;;;5042015;28;20083;-80
2022/06/08 09:31:48;;;;;;;8.73;3.05;;;26.20;58.50;;;;;;5029798;28;20383;-79
2022/06/08 09:34:19;;;;;;;3.17;2.80;;;26.30;59.10;;;;;;5038779;28;20033;-79
2022/06/08 09:37:02;;;;;;;3.97;2.75;;;26.20;60.50;;;;;;5038611;28;20052;-77
2022/06/08 09:39:28;;;;;;;4.57;3.03;;;26.20;59.50;;;;;;5058072;28;20032;-81
2022/06/08 09:41:54;;;;;;;5.05;3.22;;;26.20;60.40;;;;;;5062669;28;20443;-78
2022/06/08 09:44:29;;;;;;;3.25;2.70;;;26.10;58.50;;;;;;5024963;28;20029;-81
2022/06/08 09:53:18;;;;;;;2.63;2.42;;;26.20;61.10;;;;;;5046678;28;20032;-81
2022/06/08 09:55:53;;;;;;;4.50;3.03;;;26.30;64.00;;;;;;5043271;28;20128;-81
2022/06/08 09:58:58;;;;;;;3.30;2.78;;;26.40;64.40;;;;;;5056506;28;20068;-80
2022/06/08 10:01:49;;;;;;;3.63;2.95;;;26.50;64.90;;;;;;5043925;28;20025;-79
2022/06/08 10:04:45;;;;;;;7.85;2.78;;;26.60;63.00;;;;;;5058240;28;20032;-81
2022/06/08 10:07:20;;;;;;;2.75;2.55;;;26.70;59.50;;;;;;5075930;28;20021;-82
2022/06/08 10:09:59;;;;;;;2.60;2.40;;;26.80;59.40;;;;;;5071224;28;20431;-82
2022/06/08 10:12:44;;;;;;;3.25;2.67;;;26.90;59.30;;;;;;5058419;28;20024;-80
2022/06/08 10:15:22;;;;;;;8.10;4.00;;;26.90;57.70;;;;;;5076465;28;20500;-82
2022/06/08 10:17:58;;;;;;;7.75;2.83;;;27.00;59.50;;;;;;5074548;28;20028;-83
2022/06/08 10:20:36;;;;;;;2.95;2.50;;;27.10;57.70;;;;;;5067508;28;20025;-82
2022/06/08 10:23:33;;;;;;;2.75;2.30;;;27.20;58.30;;;;;;5034987;28;20030;-83
2022/06/08 10:26:34;;;;;;;5.57;2.28;;;27.40;61.10;;;;;;5039699;28;20075;-82
2022/06/08 10:29:18;;;;;;;3.30;2.67;;;27.60;59.10;;;;;;5043595;28;20477;-83
2022/06/08 10:31:58;;;;;;;2.95;2.35;;;27.70;56.90;;;;;;5040963;28;20362;-82
2022/06/08 10:34:33;;;;;;;2.65;2.22;;;27.80;57.50;;;;;;5043492;28;20032;-81
2022/06/08 10:37:22;;;;;;;2.50;2.28;;;28.00;57.10;;;;;;5040807;28;20029;-82
2022/06/08 10:39:52;;;;;;;8.75;2.78;;;28.10;56.50;;;;;;5048000;28;20029;-80
2022/06/08 10:42:39;;;;;;;3.85;2.25;;;28.10;55.70;;;;;;5076074;28;20033;-80
2022/06/08 10:46:00;;;;;;;2.05;1.85;;;28.00;54.50;;;;;;5032392;28;20029;-79
2022/06/08 10:48:46;;;;;;;2.15;1.95;;;27.90;55.80;;;;;;5009562;28;20042;-78
2022/06/08 10:51:18;;;;;;;2.40;2.20;;;27.80;57.60;;;;;;5003851;28;20042;-79
2022/06/08 10:56:47;;;;;;;3.47;2.22;;;27.70;55.90;;;;;;5028388;28;20524;-78
2022/06/08 10:59:24;;;;;;;2.95;1.90;;;27.60;55.20;;;;;;5039998;28;20044;-77
2022/06/08 11:01:57;;;;;;;3.63;2.00;;;27.60;55.90;;;;;;5018767;28;20548;-78
2022/06/08 11:04:54;;;;;;;2.60;2.05;;;27.50;54.90;;;;;;4996025;28;20042;-79
2022/06/08 11:07:23;;;;;;;2.03;1.80;;;27.40;55.10;;;;;;5030656;28;20033;-78
2022/06/08 11:09:55;;;;;;;2.83;1.83;;;27.40;54.80;;;;;;5014671;28;20059;-78
2022/06/08 11:12:53;;;;;;;2.35;2.05;;;27.20;55.10;;;;;;5016344;28;20034;-78
2022/06/08 11:15:45;;;;;;;3.10;1.70;;;27.00;54.00;;;;;;4996294;28;20029;-78
2022/06/08 11:18:42;;;;;;;2.53;1.50;;;27.00;55.30;;;;;;5006042;28;20044;-77
2022/06/08 11:21:18;;;;;;;2.05;1.48;;;26.90;56.50;;;;;;5022189;28;20165;-76
2022/06/08 11:23:55;;;;;;;1.92;1.42;;;26.90;57.80;;;;;;5029475;28;20037;-77
2022/06/08 11:26:28;;;;;;;2.50;1.50;;;26.80;56.40;;;;;;5054622;28;20033;-78
2022/06/08 11:29:29;;;;;;;2.08;1.70;;;26.80;57.90;;;;;;5069797;28;20029;-78
2022/06/08 11:32:01;;;;;;;1.98;1.40;;;26.70;53.80;;;;;;5074031;28;20059;-78
2022/06/08 11:34:54;;;;;;;2.20;1.50;;;26.60;55.80;;;;;;5064117;28;20021;-76
2022/06/08 11:37:45;;;;;;;1.40;1.30;;;26.60;56.00;;;;;;5054183;28;20473;-79
2022/06/08 11:40:30;;;;;;;3.25;1.48;;;26.50;55.10;;;;;;5066983;28;20060;-77
2022/06/08 11:43:14;;;;;;;4.13;1.65;;;26.40;53.70;;;;;;5056470;28;20032;-78
2022/06/08 11:45:50;;;;;;;1.60;1.50;;;26.40;54.60;;;;;;5071798;28;20082;-77
2022/06/08 11:48:18;;;;;;;1.60;1.30;;;26.30;53.60;;;;;;5072969;28;20098;-77
2022/06/08 11:50:55;;;;;;;2.22;1.17;;;26.20;54.90;;;;;;5046038;28;20025;-77
2022/06/08 11:53:42;;;;;;;2.92;1.42;;;26.20;52.70;;;;;;5071365;28;20036;-76
2022/06/08 11:56:24;;;;;;;1.40;1.17;;;26.30;55.80;;;;;;5094398;28;20040;-77
2022/06/08 11:58:59;;;;;;;1.50;1.40;;;26.30;55.50;;;;;;5094161;28;20028;-77
2022/06/08 12:01:31;;;;;;;1.13;1.10;;;26.40;54.00;;;;;;5074336;28;20020;-77
2022/06/08 12:04:19;;;;;;;2.60;1.25;;;26.50;55.50;;;;;;5055924;28;20375;-76
2022/06/08 12:06:50;;;;;;;3.80;1.05;;;26.60;55.10;;;;;;5050539;28;20037;-76
2022/06/08 12:09:26;;;;;;;4.13;0.98;;;26.70;55.20;;;;;;5047979;28;20028;-77
2022/06/08 12:12:02;;;;;;;15.45;2.03;;;26.80;54.00;;;;;;5055819;28;20123;-77
2022/06/08 12:14:38;;;;;;;2.80;1.45;;;26.90;52.40;;;;;;5046106;28;20033;-75
2022/06/08 12:17:18;;;;;;;5.35;1.58;;;27.00;52.30;;;;;;5066183;28;20078;-78
2022/06/08 12:19:53;;;;;;;2.25;1.23;;;27.10;51.80;;;;;;5055492;28;20476;-70
2022/06/08 12:22:39;;;;;;;5.65;1.80;;;27.20;51.40;;;;;;5050339;28;20028;-75
2022/06/08 12:25:27;;;;;;;5.00;1.50;;;27.30;52.20;;;;;;5043060;28;20036;-78
2022/06/08 12:28:14;;;;;;;1.50;1.40;;;27.40;52.20;;;;;;5070142;28;20036;-78
2022/06/08 12:30:43;;;;;;;3.20;1.70;;;27.40;52.40;;;;;;5056962;28;20017;-78
2022/06/08 12:33:36;;;;;;;3.28;2.20;;;27.50;52.70;;;;;;5053776;28;20453;-76
2022/06/08 12:36:28;;;;;;;2.85;1.40;;;27.60;53.40;;;;;;5054494;28;20531;-75
2022/06/08 12:39:12;;;;;;;2.15;1.40;;;27.60;54.70;;;;;;5072977;28;20499;-79
2022/06/08 12:41:48;;;;;;;2.08;1.65;;;27.80;55.10;;;;;;5061796;28;20028;-80
2022/06/08 12:44:28;;;;;;;1.70;1.55;;;27.80;56.10;;;;;;5055020;28;20025;-78
2022/06/08 12:47:12;;;;;;;3.83;1.60;;;27.90;53.00;;;;;;5058583;28;20076;-77
2022/06/08 12:49:44;;;;;;;3.22;1.13;;;27.90;55.10;;;;;;5054818;28;20028;-78
2022/06/08 12:52:32;;;;;;;2.92;1.55;;;28.00;56.10;;;;;;5055120;28;20135;-78
2022/06/08 12:54:59;;;;;;;1.80;1.30;;;28.00;54.20;;;;;;5042452;28;20108;-77
2022/06/08 12:57:30;;;;;;;1.58;1.48;;;28.10;54.20;;;;;;5041280;28;20037;-78
2022/06/08 13:00:01;;;;;;;7.40;1.25;;;28.10;55.60;;;;;;5052828;28;20477;-77
2022/06/08 13:02:30;;;;;;;1.95;1.33;;;28.10;56.00;;;;;;5034918;28;20025;-77
2022/06/08 13:04:57;;;;;;;3.33;1.40;;;28.10;56.50;;;;;;5030454;28;20060;-76
2022/06/08 13:07:28;;;;;;;3.45;1.58;;;28.20;55.30;;;;;;5029595;28;20029;-76
2022/06/08 13:09:59;;;;;;;3.88;1.50;;;28.20;54.70;;;;;;5019243;28;20030;-77
2022/06/08 13:12:33;;;;;;;2.00;1.30;;;28.10;56.30;;;;;;5015315;28;20474;-77
2022/06/08 13:15:00;;;;;;;3.33;1.83;;;28.10;57.00;;;;;;5032753;28;20026;-77
2022/06/08 13:17:28;;;;;;;2.08;1.20;;;28.10;56.10;;;;;;5015293;28;20079;-77
2022/06/08 13:19:57;;;;;;;1.58;1.17;;;28.10;54.80;;;;;;5015201;28;20397;-76
2022/06/08 13:22:26;;;;;;;1.85;1.48;;;28.00;55.10;;;;;;5015620;28;20148;-76
2022/06/08 13:24:53;;;;;;;3.40;1.23;;;28.00;56.60;;;;;;5032740;28;20520;-76
2022/06/08 13:27:20;;;;;;;2.60;1.48;;;28.00;56.30;;;;;;5015273;28;20033;-77
2022/06/08 13:29:51;;;;;;;2.08;1.38;;;28.00;56.90;;;;;;5032953;28;20049;-76
2022/06/08 13:32:26;;;;;;;1.77;1.42;;;28.00;56.90;;;;;;5015184;28;20025;-77
2022/06/08 13:34:52;;;;;;;1.85;1.55;;;28.10;56.30;;;;;;5014990;28;20380;-76
2022/06/08 13:37:36;;;;;;;2.55;1.42;;;28.10;58.10;;;;;;5015173;28;20025;-76
2022/06/08 13:40:10;;;;;;;3.58;1.70;;;28.20;56.60;;;;;;5032837;28;20025;-77
2022/06/08 13:42:37;;;;;;;2.05;1.75;;;28.50;59.10;;;;;;5015116;28;20358;-76